sensor_id;sensor_type;location;lat;lon;timestamp;P1;durP1;ratioP1;P2;durP2;ratioP2
355;SDS011;62514;48.112;11.566;2024-01-15T00:01:17;169.97;;;44.03;;
355;SDS011;62514;48.112;11.566;2024-01-15T00:03:43;175.33;;;45.30;;
355;SDS011;62514;48.112;11.566;2024-01-15T00:06:09;167.23;;;44.77;;
355;SDS011;62514;48.112;11.566;2024-01-15T00:08:34;170.43;;;45.17;;
355;SDS011;62514;48.112;11.566;2024-01-15T00:11:00;164.60;;;44.13;;
355;SDS011;62514;48.112;11.566;2024-01-15T00:13:26;163.93;;;44.60;;
355;SDS011;62514;48.112;11.566;2024-01-15T00:15:52;169.83;;;44.50;;
355;SDS011;62514;48.112;11.566;2024-01-15T00:18:18;165.40;;;43.10;;
355;SDS011;62514;48.112;11.566;2024-01-15T00:20:44;166.07;;;44.10;;
355;SDS011;62514;48.112;11.566;2024-01-15T00:23:10;176.23;;;46.10;;
355;SDS011;62514;48.112;11.566;2024-01-15T00:25:36;169.00;;;44.13;;
355;SDS011;62514;48.112;11.566;2024-01-15T00:28:02;170.37;;;44.07;;
355;SDS011;62514;48.112;11.566;2024-01-15T00:30:28;175.30;;;45.80;;
355;SDS011;62514;48.112;11.566;2024-01-15T00:32:54;166.30;;;44.63;;
355;SDS011;62514;48.112;11.566;2024-01-15T00:35:20;178.53;;;47.40;;
355;SDS011;62514;48.112;11.566;2024-01-15T00:37:46;196.93;;;58.77;;
355;SDS011;62514;48.112;11.566;2024-01-15T00:40:12;168.73;;;44.80;;
355;SDS011;62514;48.112;11.566;2024-01-15T00:42:38;165.90;;;43.03;;
355;SDS011;62514;48.112;11.566;2024-01-15T00:45:04;167.03;;;43.60;;
355;SDS011;62514;48.112;11.566;2024-01-15T00:47:31;169.70;;;44.77;;
355;SDS011;62514;48.112;11.566;2024-01-15T00:49:57;175.27;;;45.40;;
355;SDS011;62514;48.112;11.566;2024-01-15T00:52:23;170.07;;;44.37;;
355;SDS011;62514;48.112;11.566;2024-01-15T00:54:49;129.37;;;34.77;;
355;SDS011;62514;48.112;11.566;2024-01-15T00:57:15;172.30;;;46.17;;
355;SDS011;62514;48.112;11.566;2024-01-15T00:59:41;173.17;;;44.57;;
355;SDS011;62514;48.112;11.566;2024-01-15T01:02:07;174.47;;;47.70;;
355;SDS011;62514;48.112;11.566;2024-01-15T01:04:33;170.10;;;45.00;;
355;SDS011;62514;48.112;11.566;2024-01-15T01:06:59;164.63;;;43.83;;
355;SDS011;62514;48.112;11.566;2024-01-15T01:09:25;154.37;;;41.40;;
355;SDS011;62514;48.112;11.566;2024-01-15T01:11:51;152.07;;;42.07;;
355;SDS011;62514;48.112;11.566;2024-01-15T01:14:17;114.47;;;32.30;;
355;SDS011;62514;48.112;11.566;2024-01-15T01:16:43;167.53;;;46.30;;
355;SDS011;62514;48.112;11.566;2024-01-15T01:19:09;152.60;;;42.97;;
355;SDS011;62514;48.112;11.566;2024-01-15T01:21:34;166.33;;;47.27;;
355;SDS011;62514;48.112;11.566;2024-01-15T01:24:00;145.57;;;40.83;;
355;SDS011;62514;48.112;11.566;2024-01-15T01:26:26;149.37;;;42.33;;
355;SDS011;62514;48.112;11.566;2024-01-15T01:28:53;112.80;;;31.57;;
355;SDS011;62514;48.112;11.566;2024-01-15T01:31:18;147.70;;;42.30;;
355;SDS011;62514;48.112;11.566;2024-01-15T01:33:45;141.43;;;40.87;;
355;SDS011;62514;48.112;11.566;2024-01-15T01:36:10;147.97;;;43.23;;
355;SDS011;62514;48.112;11.566;2024-01-15T01:38:37;143.83;;;41.97;;
355;SDS011;62514;48.112;11.566;2024-01-15T01:41:03;140.17;;;41.17;;
355;SDS011;62514;48.112;11.566;2024-01-15T01:43:29;155.73;;;43.80;;
355;SDS011;62514;48.112;11.566;2024-01-15T01:45:55;137.50;;;40.10;;
355;SDS011;62514;48.112;11.566;2024-01-15T01:48:24;146.07;;;42.33;;
355;SDS011;62514;48.112;11.566;2024-01-15T01:50:52;152.10;;;43.67;;
355;SDS011;62514;48.112;11.566;2024-01-15T01:53:20;157.70;;;44.10;;
355;SDS011;62514;48.112;11.566;2024-01-15T01:55:47;149.60;;;42.57;;
355;SDS011;62514;48.112;11.566;2024-01-15T01:58:14;145.77;;;42.17;;
355;SDS011;62514;48.112;11.566;2024-01-15T02:00:40;139.43;;;40.27;;
355;SDS011;62514;48.112;11.566;2024-01-15T02:03:07;148.10;;;42.97;;
355;SDS011;62514;48.112;11.566;2024-01-15T02:05:33;144.17;;;41.00;;
355;SDS011;62514;48.112;11.566;2024-01-15T02:08:01;149.23;;;42.93;;
355;SDS011;62514;48.112;11.566;2024-01-15T02:10:27;141.00;;;41.00;;
355;SDS011;62514;48.112;11.566;2024-01-15T02:12:53;148.07;;;42.13;;
355;SDS011;62514;48.112;11.566;2024-01-15T02:15:19;145.10;;;42.03;;
355;SDS011;62514;48.112;11.566;2024-01-15T02:18:00;120.30;;;39.87;;
355;SDS011;62514;48.112;11.566;2024-01-15T02:20:30;143.47;;;41.57;;
355;SDS011;62514;48.112;11.566;2024-01-15T02:23:03;115.23;;;32.67;;
355;SDS011;62514;48.112;11.566;2024-01-15T02:25:32;157.13;;;43.80;;
355;SDS011;62514;48.112;11.566;2024-01-15T02:27:58;146.33;;;41.90;;
355;SDS011;62514;48.112;11.566;2024-01-15T02:30:24;138.00;;;40.60;;
355;SDS011;62514;48.112;11.566;2024-01-15T02:32:51;166.00;;;45.60;;
355;SDS011;62514;48.112;11.566;2024-01-15T02:35:18;152.20;;;42.97;;
355;SDS011;62514;48.112;11.566;2024-01-15T02:37:44;125.27;;;41.97;;
355;SDS011;62514;48.112;11.566;2024-01-15T02:40:10;128.17;;;38.60;;
355;SDS011;62514;48.112;11.566;2024-01-15T02:42:36;130.00;;;40.00;;
355;SDS011;62514;48.112;11.566;2024-01-15T02:45:02;131.30;;;39.87;;
355;SDS011;62514;48.112;11.566;2024-01-15T02:47:29;130.20;;;39.20;;
355;SDS011;62514;48.112;11.566;2024-01-15T02:49:55;127.17;;;38.60;;
355;SDS011;62514;48.112;11.566;2024-01-15T02:52:20;137.97;;;41.47;;
355;SDS011;62514;48.112;11.566;2024-01-15T02:54:46;136.73;;;39.93;;
355;SDS011;62514;48.112;11.566;2024-01-15T02:57:13;132.87;;;39.60;;
355;SDS011;62514;48.112;11.566;2024-01-15T02:59:38;146.43;;;42.50;;
355;SDS011;62514;48.112;11.566;2024-01-15T03:02:04;131.70;;;39.17;;
355;SDS011;62514;48.112;11.566;2024-01-15T03:04:30;143.23;;;41.70;;
355;SDS011;62514;48.112;11.566;2024-01-15T03:06:56;138.40;;;40.57;;
355;SDS011;62514;48.112;11.566;2024-01-15T03:09:22;139.70;;;41.00;;
355;SDS011;62514;48.112;11.566;2024-01-15T03:11:48;107.80;;;31.27;;
355;SDS011;62514;48.112;11.566;2024-01-15T03:14:14;140.90;;;41.00;;
355;SDS011;62514;48.112;11.566;2024-01-15T03:16:40;145.17;;;42.60;;
355;SDS011;62514;48.112;11.566;2024-01-15T03:19:07;140.03;;;41.53;;
355;SDS011;62514;48.112;11.566;2024-01-15T03:21:33;155.13;;;44.57;;
355;SDS011;62514;48.112;11.566;2024-01-15T03:23:59;136.80;;;41.40;;
355;SDS011;62514;48.112;11.566;2024-01-15T03:26:25;134.73;;;40.10;;
355;SDS011;62514;48.112;11.566;2024-01-15T03:28:51;104.13;;;31.60;;
355;SDS011;62514;48.112;11.566;2024-01-15T03:31:17;145.50;;;42.47;;
355;SDS011;62514;48.112;11.566;2024-01-15T03:33:43;149.10;;;42.07;;
355;SDS011;62514;48.112;11.566;2024-01-15T03:36:09;142.10;;;41.87;;
355;SDS011;62514;48.112;11.566;2024-01-15T03:38:38;137.87;;;40.97;;
355;SDS011;62514;48.112;11.566;2024-01-15T03:41:06;135.43;;;39.60;;
355;SDS011;62514;48.112;11.566;2024-01-15T03:43:32;139.43;;;40.57;;
355;SDS011;62514;48.112;11.566;2024-01-15T03:45:58;139.23;;;41.50;;
355;SDS011;62514;48.112;11.566;2024-01-15T03:48:24;141.47;;;41.30;;
355;SDS011;62514;48.112;11.566;2024-01-15T03:50:50;140.70;;;40.57;;
355;SDS011;62514;48.112;11.566;2024-01-15T03:53:16;137.50;;;41.17;;
355;SDS011;62514;48.112;11.566;2024-01-15T03:55:42;140.77;;;41.47;;
355;SDS011;62514;48.112;11.566;2024-01-15T03:58:08;132.73;;;39.07;;
355;SDS011;62514;48.112;11.566;2024-01-15T04:00:34;155.73;;;45.97;;
355;SDS011;62514;48.112;11.566;2024-01-15T04:03:00;135.20;;;39.90;;
355;SDS011;62514;48.112;11.566;2024-01-15T04:05:26;137.23;;;41.57;;
355;SDS011;62514;48.112;11.566;2024-01-15T04:07:52;152.73;;;48.77;;
355;SDS011;62514;48.112;11.566;2024-01-15T04:10:18;132.90;;;40.17;;
355;SDS011;62514;48.112;11.566;2024-01-15T04:12:43;135.67;;;40.50;;
355;SDS011;62514;48.112;11.566;2024-01-15T04:15:12;135.47;;;40.03;;
355;SDS011;62514;48.112;11.566;2024-01-15T04:17:38;133.53;;;39.50;;
355;SDS011;62514;48.112;11.566;2024-01-15T04:20:04;139.60;;;41.73;;
355;SDS011;62514;48.112;11.566;2024-01-15T04:22:30;135.20;;;40.97;;
355;SDS011;62514;48.112;11.566;2024-01-15T04:24:56;136.93;;;40.17;;
355;SDS011;62514;48.112;11.566;2024-01-15T04:27:22;145.73;;;42.60;;
355;SDS011;62514;48.112;11.566;2024-01-15T04:29:48;136.07;;;39.53;;
355;SDS011;62514;48.112;11.566;2024-01-15T04:32:14;146.43;;;42.20;;
355;SDS011;62514;48.112;11.566;2024-01-15T04:34:40;141.07;;;41.50;;
355;SDS011;62514;48.112;11.566;2024-01-15T04:37:06;147.27;;;43.07;;
355;SDS011;62514;48.112;11.566;2024-01-15T04:39:32;146.80;;;42.50;;
355;SDS011;62514;48.112;11.566;2024-01-15T04:41:58;138.20;;;40.90;;
355;SDS011;62514;48.112;11.566;2024-01-15T04:44:24;144.47;;;43.13;;
355;SDS011;62514;48.112;11.566;2024-01-15T04:46:51;142.73;;;41.90;;
355;SDS011;62514;48.112;11.566;2024-01-15T04:49:17;137.57;;;41.03;;
355;SDS011;62514;48.112;11.566;2024-01-15T04:51:43;143.97;;;44.53;;
355;SDS011;62514;48.112;11.566;2024-01-15T04:54:08;134.03;;;40.27;;
355;SDS011;62514;48.112;11.566;2024-01-15T04:56:34;147.43;;;42.63;;
355;SDS011;62514;48.112;11.566;2024-01-15T04:59:00;150.00;;;43.10;;
355;SDS011;62514;48.112;11.566;2024-01-15T05:01:30;135.40;;;40.47;;
355;SDS011;62514;48.112;11.566;2024-01-15T05:03:57;137.43;;;40.40;;
355;SDS011;62514;48.112;11.566;2024-01-15T05:06:23;130.53;;;39.57;;
355;SDS011;62514;48.112;11.566;2024-01-15T05:08:49;135.47;;;40.30;;
355;SDS011;62514;48.112;11.566;2024-01-15T05:11:15;138.07;;;40.47;;
355;SDS011;62514;48.112;11.566;2024-01-15T05:13:41;135.93;;;40.23;;
355;SDS011;62514;48.112;11.566;2024-01-15T05:16:07;140.47;;;41.70;;
355;SDS011;62514;48.112;11.566;2024-01-15T05:18:33;138.90;;;41.33;;
355;SDS011;62514;48.112;11.566;2024-01-15T05:20:59;132.67;;;39.40;;
355;SDS011;62514;48.112;11.566;2024-01-15T05:23:25;143.33;;;42.50;;
355;SDS011;62514;48.112;11.566;2024-01-15T05:25:51;135.30;;;39.70;;
355;SDS011;62514;48.112;11.566;2024-01-15T05:28:17;144.17;;;42.47;;
355;SDS011;62514;48.112;11.566;2024-01-15T05:30:43;141.57;;;42.10;;
355;SDS011;62514;48.112;11.566;2024-01-15T05:33:09;145.40;;;41.43;;
355;SDS011;62514;48.112;11.566;2024-01-15T05:35:35;138.30;;;41.20;;
355;SDS011;62514;48.112;11.566;2024-01-15T05:38:01;150.30;;;44.20;;
355;SDS011;62514;48.112;11.566;2024-01-15T05:40:28;138.00;;;40.47;;
355;SDS011;62514;48.112;11.566;2024-01-15T05:42:54;138.80;;;40.73;;
355;SDS011;62514;48.112;11.566;2024-01-15T05:45:20;145.90;;;42.20;;
355;SDS011;62514;48.112;11.566;2024-01-15T05:47:45;114.93;;;38.53;;
355;SDS011;62514;48.112;11.566;2024-01-15T05:50:11;129.67;;;39.10;;
355;SDS011;62514;48.112;11.566;2024-01-15T05:52:37;141.30;;;40.40;;
355;SDS011;62514;48.112;11.566;2024-01-15T05:55:04;144.27;;;40.50;;
355;SDS011;62514;48.112;11.566;2024-01-15T05:57:30;150.43;;;44.03;;
355;SDS011;62514;48.112;11.566;2024-01-15T05:59:56;139.20;;;42.10;;
355;SDS011;62514;48.112;11.566;2024-01-15T06:02:22;133.60;;;39.60;;
355;SDS011;62514;48.112;11.566;2024-01-15T06:04:48;144.57;;;41.93;;
355;SDS011;62514;48.112;11.566;2024-01-15T06:07:14;140.17;;;41.77;;
355;SDS011;62514;48.112;11.566;2024-01-15T06:09:40;150.40;;;43.23;;
355;SDS011;62514;48.112;11.566;2024-01-15T06:12:06;141.10;;;41.77;;
355;SDS011;62514;48.112;11.566;2024-01-15T06:14:33;135.17;;;40.57;;
355;SDS011;62514;48.112;11.566;2024-01-15T06:16:59;136.37;;;40.90;;
355;SDS011;62514;48.112;11.566;2024-01-15T06:19:25;138.97;;;41.97;;
355;SDS011;62514;48.112;11.566;2024-01-15T06:21:51;138.07;;;40.27;;
355;SDS011;62514;48.112;11.566;2024-01-15T06:24:16;149.47;;;42.63;;
355;SDS011;62514;48.112;11.566;2024-01-15T06:26:48;149.90;;;44.90;;
355;SDS011;62514;48.112;11.566;2024-01-15T06:29:14;129.00;;;39.17;;
355;SDS011;62514;48.112;11.566;2024-01-15T06:31:40;156.27;;;50.30;;
355;SDS011;62514;48.112;11.566;2024-01-15T06:34:06;126.13;;;38.80;;
355;SDS011;62514;48.112;11.566;2024-01-15T06:36:32;135.33;;;41.03;;
355;SDS011;62514;48.112;11.566;2024-01-15T06:38:57;128.20;;;39.37;;
355;SDS011;62514;48.112;11.566;2024-01-15T06:41:23;129.87;;;38.77;;
355;SDS011;62514;48.112;11.566;2024-01-15T06:43:50;137.63;;;40.80;;
355;SDS011;62514;48.112;11.566;2024-01-15T06:46:22;136.83;;;41.57;;
355;SDS011;62514;48.112;11.566;2024-01-15T06:48:49;147.27;;;42.50;;
355;SDS011;62514;48.112;11.566;2024-01-15T06:51:15;140.10;;;40.57;;
355;SDS011;62514;48.112;11.566;2024-01-15T06:53:41;142.57;;;42.90;;
355;SDS011;62514;48.112;11.566;2024-01-15T06:56:07;101.43;;;30.57;;
355;SDS011;62514;48.112;11.566;2024-01-15T06:58:34;136.97;;;40.43;;
355;SDS011;62514;48.112;11.566;2024-01-15T07:01:00;99.70;;;29.53;;
355;SDS011;62514;48.112;11.566;2024-01-15T07:03:27;144.50;;;42.27;;
355;SDS011;62514;48.112;11.566;2024-01-15T07:05:53;131.00;;;39.20;;
355;SDS011;62514;48.112;11.566;2024-01-15T07:08:19;137.87;;;41.00;;
355;SDS011;62514;48.112;11.566;2024-01-15T07:10:45;142.87;;;42.50;;
355;SDS011;62514;48.112;11.566;2024-01-15T07:13:11;133.17;;;39.80;;
355;SDS011;62514;48.112;11.566;2024-01-15T07:15:37;140.10;;;41.97;;
355;SDS011;62514;48.112;11.566;2024-01-15T07:18:03;131.77;;;39.53;;
355;SDS011;62514;48.112;11.566;2024-01-15T07:20:29;138.33;;;40.53;;
355;SDS011;62514;48.112;11.566;2024-01-15T07:22:55;137.80;;;40.57;;
355;SDS011;62514;48.112;11.566;2024-01-15T07:25:22;139.27;;;40.80;;
355;SDS011;62514;48.112;11.566;2024-01-15T07:27:47;169.23;;;55.53;;
355;SDS011;62514;48.112;11.566;2024-01-15T07:30:13;140.90;;;41.10;;
355;SDS011;62514;48.112;11.566;2024-01-15T07:32:40;141.37;;;41.00;;
355;SDS011;62514;48.112;11.566;2024-01-15T07:35:06;137.27;;;39.80;;
355;SDS011;62514;48.112;11.566;2024-01-15T07:37:32;147.07;;;41.40;;
355;SDS011;62514;48.112;11.566;2024-01-15T07:39:58;138.50;;;40.30;;
355;SDS011;62514;48.112;11.566;2024-01-15T07:42:25;135.30;;;40.10;;
355;SDS011;62514;48.112;11.566;2024-01-15T07:44:51;137.87;;;41.97;;
355;SDS011;62514;48.112;11.566;2024-01-15T07:47:17;138.90;;;41.00;;
355;SDS011;62514;48.112;11.566;2024-01-15T07:49:43;149.03;;;43.43;;
355;SDS011;62514;48.112;11.566;2024-01-15T07:52:09;135.67;;;40.17;;
355;SDS011;62514;48.112;11.566;2024-01-15T07:54:35;143.00;;;42.10;;
355;SDS011;62514;48.112;11.566;2024-01-15T07:57:01;137.40;;;40.40;;
355;SDS011;62514;48.112;11.566;2024-01-15T07:59:30;144.10;;;41.33;;
355;SDS011;62514;48.112;11.566;2024-01-15T08:01:58;137.77;;;40.00;;
355;SDS011;62514;48.112;11.566;2024-01-15T08:04:24;131.63;;;39.57;;
355;SDS011;62514;48.112;11.566;2024-01-15T08:06:50;150.07;;;45.57;;
355;SDS011;62514;48.112;11.566;2024-01-15T08:09:16;134.10;;;40.23;;
355;SDS011;62514;48.112;11.566;2024-01-15T08:11:42;147.93;;;45.57;;
355;SDS011;62514;48.112;11.566;2024-01-15T08:14:09;134.43;;;39.67;;
355;SDS011;62514;48.112;11.566;2024-01-15T08:16:36;141.13;;;41.50;;
355;SDS011;62514;48.112;11.566;2024-01-15T08:19:02;153.30;;;46.07;;
355;SDS011;62514;48.112;11.566;2024-01-15T08:21:28;138.83;;;40.83;;
355;SDS011;62514;48.112;11.566;2024-01-15T08:23:58;149.23;;;44.27;;
355;SDS011;62514;48.112;11.566;2024-01-15T08:26:25;135.50;;;39.97;;
355;SDS011;62514;48.112;11.566;2024-01-15T08:28:51;147.27;;;44.27;;
355;SDS011;62514;48.112;11.566;2024-01-15T08:31:17;138.30;;;40.37;;
355;SDS011;62514;48.112;11.566;2024-01-15T08:33:43;133.07;;;40.17;;
355;SDS011;62514;48.112;11.566;2024-01-15T08:36:09;134.30;;;39.00;;
355;SDS011;62514;48.112;11.566;2024-01-15T08:38:35;133.63;;;39.90;;
355;SDS011;62514;48.112;11.566;2024-01-15T08:41:01;134.87;;;40.57;;
355;SDS011;62514;48.112;11.566;2024-01-15T08:43:27;136.30;;;40.07;;
355;SDS011;62514;48.112;11.566;2024-01-15T08:45:53;143.57;;;42.03;;
355;SDS011;62514;48.112;11.566;2024-01-15T08:48:19;150.30;;;44.53;;
355;SDS011;62514;48.112;11.566;2024-01-15T08:50:45;145.47;;;42.37;;
355;SDS011;62514;48.112;11.566;2024-01-15T08:53:11;146.03;;;43.60;;
355;SDS011;62514;48.112;11.566;2024-01-15T08:55:38;145.60;;;42.60;;
355;SDS011;62514;48.112;11.566;2024-01-15T08:58:04;142.70;;;41.10;;
355;SDS011;62514;48.112;11.566;2024-01-15T09:00:31;140.37;;;41.43;;
355;SDS011;62514;48.112;11.566;2024-01-15T09:02:57;145.00;;;42.87;;
355;SDS011;62514;48.112;11.566;2024-01-15T09:05:23;108.03;;;33.47;;
355;SDS011;62514;48.112;11.566;2024-01-15T09:07:49;174.17;;;57.93;;
355;SDS011;62514;48.112;11.566;2024-01-15T09:10:17;145.47;;;42.80;;
355;SDS011;62514;48.112;11.566;2024-01-15T09:12:45;142.37;;;42.60;;
355;SDS011;62514;48.112;11.566;2024-01-15T09:15:11;137.60;;;40.90;;
355;SDS011;62514;48.112;11.566;2024-01-15T09:17:37;136.00;;;41.10;;
355;SDS011;62514;48.112;11.566;2024-01-15T09:20:03;145.53;;;42.37;;
355;SDS011;62514;48.112;11.566;2024-01-15T09:22:31;142.40;;;42.03;;
355;SDS011;62514;48.112;11.566;2024-01-15T09:24:57;145.50;;;43.50;;
355;SDS011;62514;48.112;11.566;2024-01-15T09:27:24;141.30;;;41.83;;
355;SDS011;62514;48.112;11.566;2024-01-15T09:29:53;148.60;;;43.17;;
355;SDS011;62514;48.112;11.566;2024-01-15T09:32:19;141.17;;;41.03;;
355;SDS011;62514;48.112;11.566;2024-01-15T09:34:48;158.57;;;44.83;;
355;SDS011;62514;48.112;11.566;2024-01-15T09:37:14;143.50;;;43.20;;
355;SDS011;62514;48.112;11.566;2024-01-15T09:39:40;147.87;;;42.90;;
355;SDS011;62514;48.112;11.566;2024-01-15T09:42:06;142.53;;;41.27;;
355;SDS011;62514;48.112;11.566;2024-01-15T09:44:34;146.87;;;43.20;;
355;SDS011;62514;48.112;11.566;2024-01-15T09:47:00;153.00;;;44.40;;
355;SDS011;62514;48.112;11.566;2024-01-15T09:49:27;143.10;;;42.90;;
355;SDS011;62514;48.112;11.566;2024-01-15T09:51:55;157.50;;;47.40;;
355;SDS011;62514;48.112;11.566;2024-01-15T09:54:22;135.07;;;40.30;;
355;SDS011;62514;48.112;11.566;2024-01-15T09:56:49;99.73;;;30.53;;
355;SDS011;62514;48.112;11.566;2024-01-15T09:59:18;140.23;;;41.10;;
355;SDS011;62514;48.112;11.566;2024-01-15T10:01:45;157.90;;;48.77;;
355;SDS011;62514;48.112;11.566;2024-01-15T10:04:13;146.20;;;41.63;;
355;SDS011;62514;48.112;11.566;2024-01-15T10:06:49;146.83;;;42.40;;
355;SDS011;62514;48.112;11.566;2024-01-15T10:09:17;147.73;;;42.53;;
355;SDS011;62514;48.112;11.566;2024-01-15T10:11:43;164.20;;;49.23;;
355;SDS011;62514;48.112;11.566;2024-01-15T10:14:10;148.03;;;42.87;;
355;SDS011;62514;48.112;11.566;2024-01-15T10:16:39;149.67;;;42.80;;
355;SDS011;62514;48.112;11.566;2024-01-15T10:19:05;156.83;;;44.87;;
355;SDS011;62514;48.112;11.566;2024-01-15T10:21:32;159.60;;;45.90;;
355;SDS011;62514;48.112;11.566;2024-01-15T10:24:01;135.20;;;40.57;;
355;SDS011;62514;48.112;11.566;2024-01-15T10:26:28;154.23;;;44.90;;
355;SDS011;62514;48.112;11.566;2024-01-15T10:28:54;164.47;;;46.30;;
355;SDS011;62514;48.112;11.566;2024-01-15T10:31:20;163.40;;;45.63;;
355;SDS011;62514;48.112;11.566;2024-01-15T10:33:50;166.47;;;45.20;;
355;SDS011;62514;48.112;11.566;2024-01-15T10:36:16;165.53;;;45.90;;
355;SDS011;62514;48.112;11.566;2024-01-15T10:38:45;152.77;;;44.00;;
355;SDS011;62514;48.112;11.566;2024-01-15T10:41:12;161.00;;;46.93;;
355;SDS011;62514;48.112;11.566;2024-01-15T10:43:38;113.63;;;33.47;;
355;SDS011;62514;48.112;11.566;2024-01-15T10:46:06;153.90;;;44.87;;
355;SDS011;62514;48.112;11.566;2024-01-15T10:48:33;147.67;;;43.07;;
355;SDS011;62514;48.112;11.566;2024-01-15T10:51:01;154.53;;;45.13;;
355;SDS011;62514;48.112;11.566;2024-01-15T10:53:37;149.53;;;43.27;;
355;SDS011;62514;48.112;11.566;2024-01-15T10:56:05;146.60;;;42.00;;
355;SDS011;62514;48.112;11.566;2024-01-15T10:58:32;141.60;;;40.33;;
355;SDS011;62514;48.112;11.566;2024-01-15T11:01:00;144.87;;;41.87;;
355;SDS011;62514;48.112;11.566;2024-01-15T11:03:27;153.57;;;45.30;;
355;SDS011;62514;48.112;11.566;2024-01-15T11:05:53;150.20;;;42.93;;
355;SDS011;62514;48.112;11.566;2024-01-15T11:08:19;144.37;;;41.67;;
355;SDS011;62514;48.112;11.566;2024-01-15T11:10:47;148.83;;;42.30;;
355;SDS011;62514;48.112;11.566;2024-01-15T11:15:59;149.93;;;42.00;;
355;SDS011;62514;48.112;11.566;2024-01-15T11:18:37;153.87;;;43.63;;
355;SDS011;62514;48.112;11.566;2024-01-15T11:23:47;161.00;;;45.40;;
355;SDS011;62514;48.112;11.566;2024-01-15T11:26:27;173.40;;;45.80;;
355;SDS011;62514;48.112;11.566;2024-01-15T11:29:04;163.00;;;45.33;;
355;SDS011;62514;48.112;11.566;2024-01-15T11:34:06;150.20;;;42.50;;
355;SDS011;62514;48.112;11.566;2024-01-15T11:41:59;154.93;;;45.10;;
355;SDS011;62514;48.112;11.566;2024-01-15T11:44:27;157.60;;;45.10;;
355;SDS011;62514;48.112;11.566;2024-01-15T11:47:00;165.63;;;47.40;;
355;SDS011;62514;48.112;11.566;2024-01-15T11:52:16;150.80;;;43.30;;
355;SDS011;62514;48.112;11.566;2024-01-15T11:54:49;150.27;;;42.43;;
355;SDS011;62514;48.112;11.566;2024-01-15T11:57:32;152.43;;;42.13;;
355;SDS011;62514;48.112;11.566;2024-01-15T12:00:05;159.27;;;44.93;;
355;SDS011;62514;48.112;11.566;2024-01-15T12:02:32;152.53;;;43.20;;
355;SDS011;62514;48.112;11.566;2024-01-15T12:04:58;157.43;;;44.07;;
355;SDS011;62514;48.112;11.566;2024-01-15T12:07:24;157.87;;;44.60;;
355;SDS011;62514;48.112;11.566;2024-01-15T12:09:50;167.10;;;46.70;;
355;SDS011;62514;48.112;11.566;2024-01-15T12:12:20;157.57;;;45.33;;
355;SDS011;62514;48.112;11.566;2024-01-15T12:15:03;156.23;;;43.00;;
355;SDS011;62514;48.112;11.566;2024-01-15T12:17:29;159.83;;;44.13;;
355;SDS011;62514;48.112;11.566;2024-01-15T12:19:56;158.30;;;43.60;;
355;SDS011;62514;48.112;11.566;2024-01-15T12:22:22;157.60;;;43.53;;
355;SDS011;62514;48.112;11.566;2024-01-15T12:24:48;153.07;;;42.03;;
355;SDS011;62514;48.112;11.566;2024-01-15T12:27:14;165.83;;;45.23;;
355;SDS011;62514;48.112;11.566;2024-01-15T12:29:40;158.30;;;42.63;;
355;SDS011;62514;48.112;11.566;2024-01-15T12:32:06;162.70;;;46.20;;
355;SDS011;62514;48.112;11.566;2024-01-15T12:34:33;156.27;;;43.37;;
355;SDS011;62514;48.112;11.566;2024-01-15T12:36:59;161.03;;;45.10;;
355;SDS011;62514;48.112;11.566;2024-01-15T12:39:25;154.40;;;42.70;;
355;SDS011;62514;48.112;11.566;2024-01-15T12:41:51;156.00;;;43.33;;
355;SDS011;62514;48.112;11.566;2024-01-15T12:44:17;158.47;;;43.80;;
355;SDS011;62514;48.112;11.566;2024-01-15T12:46:43;156.77;;;42.60;;
355;SDS011;62514;48.112;11.566;2024-01-15T12:49:09;157.17;;;43.50;;
355;SDS011;62514;48.112;11.566;2024-01-15T12:51:35;168.57;;;46.87;;
355;SDS011;62514;48.112;11.566;2024-01-15T12:54:01;171.07;;;49.37;;
355;SDS011;62514;48.112;11.566;2024-01-15T12:56:27;184.23;;;53.40;;
355;SDS011;62514;48.112;11.566;2024-01-15T12:58:52;170.03;;;46.60;;
355;SDS011;62514;48.112;11.566;2024-01-15T13:01:18;164.90;;;45.17;;
355;SDS011;62514;48.112;11.566;2024-01-15T13:03:44;169.37;;;45.20;;
355;SDS011;62514;48.112;11.566;2024-01-15T13:06:10;187.83;;;49.10;;
355;SDS011;62514;48.112;11.566;2024-01-15T13:08:36;235.40;;;48.87;;
355;SDS011;62514;48.112;11.566;2024-01-15T13:11:02;194.27;;;48.67;;
355;SDS011;62514;48.112;11.566;2024-01-15T13:13:29;209.83;;;51.67;;
355;SDS011;62514;48.112;11.566;2024-01-15T13:15:55;208.60;;;51.37;;
355;SDS011;62514;48.112;11.566;2024-01-15T13:18:21;235.53;;;60.23;;
355;SDS011;62514;48.112;11.566;2024-01-15T13:20:47;207.07;;;49.77;;
355;SDS011;62514;48.112;11.566;2024-01-15T13:23:13;209.53;;;50.77;;
355;SDS011;62514;48.112;11.566;2024-01-15T13:25:39;209.97;;;50.80;;
355;SDS011;62514;48.112;11.566;2024-01-15T13:28:06;202.90;;;51.07;;
355;SDS011;62514;48.112;11.566;2024-01-15T13:30:32;194.63;;;49.40;;
355;SDS011;62514;48.112;11.566;2024-01-15T13:32:58;192.17;;;49.13;;
355;SDS011;62514;48.112;11.566;2024-01-15T13:35:29;190.30;;;50.47;;
355;SDS011;62514;48.112;11.566;2024-01-15T13:37:55;200.10;;;56.63;;
355;SDS011;62514;48.112;11.566;2024-01-15T13:40:21;179.93;;;48.27;;
355;SDS011;62514;48.112;11.566;2024-01-15T13:42:47;175.83;;;47.20;;
355;SDS011;62514;48.112;11.566;2024-01-15T13:45:14;169.30;;;46.67;;
355;SDS011;62514;48.112;11.566;2024-01-15T13:47:40;170.63;;;45.77;;
355;SDS011;62514;48.112;11.566;2024-01-15T13:50:07;169.43;;;44.77;;
355;SDS011;62514;48.112;11.566;2024-01-15T13:52:34;171.40;;;46.20;;
355;SDS011;62514;48.112;11.566;2024-01-15T13:55:00;166.00;;;44.23;;
355;SDS011;62514;48.112;11.566;2024-01-15T13:57:27;169.57;;;45.57;;
355;SDS011;62514;48.112;11.566;2024-01-15T13:59:53;164.47;;;44.37;;
355;SDS011;62514;48.112;11.566;2024-01-15T14:02:18;175.77;;;48.67;;
355;SDS011;62514;48.112;11.566;2024-01-15T14:04:45;166.73;;;45.03;;
355;SDS011;62514;48.112;11.566;2024-01-15T14:07:12;166.37;;;44.70;;
355;SDS011;62514;48.112;11.566;2024-01-15T14:09:38;164.10;;;43.90;;
355;SDS011;62514;48.112;11.566;2024-01-15T14:12:04;184.80;;;50.97;;
355;SDS011;62514;48.112;11.566;2024-01-15T14:14:31;168.10;;;45.83;;
355;SDS011;62514;48.112;11.566;2024-01-15T14:16:57;170.87;;;46.50;;
355;SDS011;62514;48.112;11.566;2024-01-15T14:19:23;172.13;;;46.43;;
355;SDS011;62514;48.112;11.566;2024-01-15T14:21:49;172.73;;;47.80;;
355;SDS011;62514;48.112;11.566;2024-01-15T14:24:15;163.30;;;44.43;;
355;SDS011;62514;48.112;11.566;2024-01-15T14:26:42;183.03;;;49.33;;
355;SDS011;62514;48.112;11.566;2024-01-15T14:29:08;169.43;;;45.53;;
355;SDS011;62514;48.112;11.566;2024-01-15T14:31:34;166.00;;;45.37;;
355;SDS011;62514;48.112;11.566;2024-01-15T14:34:00;175.80;;;47.53;;